sensor_id;sensor_type;location;lat;lon;timestamp;temperature;humidity
43561;DHT22;32305;46.410;17.394;2023-06-24T00:02:02;26.20;59.60
43561;DHT22;32305;46.410;17.394;2023-06-24T00:04:29;26.20;59.70
43561;DHT22;32305;46.410;17.394;2023-06-24T00:06:56;26.20;59.60
43561;DHT22;32305;46.410;17.394;2023-06-24T00:09:26;26.20;59.70
43561;DHT22;32305;46.410;17.394;2023-06-24T00:11:54;26.20;59.70
43561;DHT22;32305;46.410;17.394;2023-06-24T00:14:21;26.20;59.70
43561;DHT22;32305;46.410;17.394;2023-06-24T00:16:50;26.20;59.70
43561;DHT22;32305;46.410;17.394;2023-06-24T00:19:18;26.20;59.80
43561;DHT22;32305;46.410;17.394;2023-06-24T00:21:46;26.20;59.80
43561;DHT22;32305;46.410;17.394;2023-06-24T00:24:12;26.20;59.70
43561;DHT22;32305;46.410;17.394;2023-06-24T00:26:39;26.20;59.70
43561;DHT22;32305;46.410;17.394;2023-06-24T00:29:06;26.20;59.60
43561;DHT22;32305;46.410;17.394;2023-06-24T00:31:33;26.20;59.60
43561;DHT22;32305;46.410;17.394;2023-06-24T00:34:00;26.20;59.60
43561;DHT22;32305;46.410;17.394;2023-06-24T00:36:27;26.20;59.60
43561;DHT22;32305;46.410;17.394;2023-06-24T00:38:55;26.20;59.50
43561;DHT22;32305;46.410;17.394;2023-06-24T00:41:22;26.20;59.60
43561;DHT22;32305;46.410;17.394;2023-06-24T00:43:49;26.20;59.60
43561;DHT22;32305;46.410;17.394;2023-06-24T00:46:16;26.20;59.60
43561;DHT22;32305;46.410;17.394;2023-06-24T00:48:46;26.20;59.50
43561;DHT22;32305;46.410;17.394;2023-06-24T00:51:13;26.20;59.60
43561;DHT22;32305;46.410;17.394;2023-06-24T00:53:40;26.20;59.50
43561;DHT22;32305;46.410;17.394;2023-06-24T00:56:07;26.20;59.40
43561;DHT22;32305;46.410;17.394;2023-06-24T00:58:34;26.20;59.30
43561;DHT22;32305;46.410;17.394;2023-06-24T01:01:03;26.20;59.30
43561;DHT22;32305;46.410;17.394;2023-06-24T01:03:32;26.20;59.30
43561;DHT22;32305;46.410;17.394;2023-06-24T01:05:59;26.20;59.30
43561;DHT22;32305;46.410;17.394;2023-06-24T01:08:26;26.20;59.30
43561;DHT22;32305;46.410;17.394;2023-06-24T01:10:53;26.20;59.30
43561;DHT22;32305;46.410;17.394;2023-06-24T01:13:21;26.20;59.30
43561;DHT22;32305;46.410;17.394;2023-06-24T01:15:49;26.20;59.30
43561;DHT22;32305;46.410;17.394;2023-06-24T01:18:31;26.20;59.30
43561;DHT22;32305;46.410;17.394;2023-06-24T01:21:05;26.20;59.30
43561;DHT22;32305;46.410;17.394;2023-06-24T01:23:38;26.20;59.30
43561;DHT22;32305;46.410;17.394;2023-06-24T01:29:08;26.10;59.20
43561;DHT22;32305;46.410;17.394;2023-06-24T01:31:45;26.20;59.30
43561;DHT22;32305;46.410;17.394;2023-06-24T01:34:22;26.10;59.20
43561;DHT22;32305;46.410;17.394;2023-06-24T01:36:54;26.10;59.30
43561;DHT22;32305;46.410;17.394;2023-06-24T01:39:22;26.10;59.20
43561;DHT22;32305;46.410;17.394;2023-06-24T01:41:54;26.10;59.20
43561;DHT22;32305;46.410;17.394;2023-06-24T01:44:22;26.10;59.30
43561;DHT22;32305;46.410;17.394;2023-06-24T01:46:49;26.10;59.30
43561;DHT22;32305;46.410;17.394;2023-06-24T01:49:18;26.10;59.30
43561;DHT22;32305;46.410;17.394;2023-06-24T01:51:46;26.10;59.30
43561;DHT22;32305;46.410;17.394;2023-06-24T01:54:14;26.10;59.30
43561;DHT22;32305;46.410;17.394;2023-06-24T01:56:45;26.10;59.20
43561;DHT22;32305;46.410;17.394;2023-06-24T01:59:15;26.10;59.30
43561;DHT22;32305;46.410;17.394;2023-06-24T02:01:42;26.10;59.30
43561;DHT22;32305;46.410;17.394;2023-06-24T02:04:10;26.10;59.30
43561;DHT22;32305;46.410;17.394;2023-06-24T02:06:38;26.10;59.30
43561;DHT22;32305;46.410;17.394;2023-06-24T02:09:07;26.10;59.40
43561;DHT22;32305;46.410;17.394;2023-06-24T02:11:34;26.10;59.30
43561;DHT22;32305;46.410;17.394;2023-06-24T02:14:02;26.10;59.30
43561;DHT22;32305;46.410;17.394;2023-06-24T02:16:31;26.10;59.30
43561;DHT22;32305;46.410;17.394;2023-06-24T02:18:59;26.10;59.30
43561;DHT22;32305;46.410;17.394;2023-06-24T02:21:28;26.10;59.30
43561;DHT22;32305;46.410;17.394;2023-06-24T02:23:55;26.10;59.30
43561;DHT22;32305;46.410;17.394;2023-06-24T02:26:23;26.10;59.30
43561;DHT22;32305;46.410;17.394;2023-06-24T02:28:52;26.10;59.30
43561;DHT22;32305;46.410;17.394;2023-06-24T02:31:19;26.10;59.30
43561;DHT22;32305;46.410;17.394;2023-06-24T02:33:47;26.10;59.30
43561;DHT22;32305;46.410;17.394;2023-06-24T02:36:14;26.10;59.30
43561;DHT22;32305;46.410;17.394;2023-06-24T02:38:41;26.10;59.40
43561;DHT22;32305;46.410;17.394;2023-06-24T02:41:08;26.10;59.40
43561;DHT22;32305;46.410;17.394;2023-06-24T02:43:34;26.10;59.40
43561;DHT22;32305;46.410;17.394;2023-06-24T02:46:03;26.10;59.40
43561;DHT22;32305;46.410;17.394;2023-06-24T02:48:32;26.10;59.30
43561;DHT22;32305;46.410;17.394;2023-06-24T02:51:00;26.10;59.40
43561;DHT22;32305;46.410;17.394;2023-06-24T02:53:27;26.10;59.30
43561;DHT22;32305;46.410;17.394;2023-06-24T02:55:55;26.10;59.30
43561;DHT22;32305;46.410;17.394;2023-06-24T02:58:23;26.10;59.20
43561;DHT22;32305;46.410;17.394;2023-06-24T03:00:50;26.10;59.20
43561;DHT22;32305;46.410;17.394;2023-06-24T03:03:17;26.10;59.30
43561;DHT22;32305;46.410;17.394;2023-06-24T03:05:45;26.10;59.30
43561;DHT22;32305;46.410;17.394;2023-06-24T03:08:15;26.10;59.30
43561;DHT22;32305;46.410;17.394;2023-06-24T03:10:42;26.10;59.20
43561;DHT22;32305;46.410;17.394;2023-06-24T03:13:10;26.10;59.20
43561;DHT22;32305;46.410;17.394;2023-06-24T03:15:37;26.10;59.20
43561;DHT22;32305;46.410;17.394;2023-06-24T03:18:04;26.10;59.20
43561;DHT22;32305;46.410;17.394;2023-06-24T03:20:31;26.10;59.10
43561;DHT22;32305;46.410;17.394;2023-06-24T03:23:05;26.10;59.10
43561;DHT22;32305;46.410;17.394;2023-06-24T03:25:33;26.10;59.10
43561;DHT22;32305;46.410;17.394;2023-06-24T03:28:01;26.10;59.10
43561;DHT22;32305;46.410;17.394;2023-06-24T03:30:30;26.10;59.10
43561;DHT22;32305;46.410;17.394;2023-06-24T03:32:57;26.10;59.00
43561;DHT22;32305;46.410;17.394;2023-06-24T03:35:24;26.20;59.10
43561;DHT22;32305;46.410;17.394;2023-06-24T03:37:51;26.20;59.10
43561;DHT22;32305;46.410;17.394;2023-06-24T03:40:18;26.20;59.10
43561;DHT22;32305;46.410;17.394;2023-06-24T03:42:45;26.20;59.00
43561;DHT22;32305;46.410;17.394;2023-06-24T03:45:12;26.20;59.00
43561;DHT22;32305;46.410;17.394;2023-06-24T03:47:41;26.20;59.00
43561;DHT22;32305;46.410;17.394;2023-06-24T03:50:08;26.20;59.00
43561;DHT22;32305;46.410;17.394;2023-06-24T03:52:35;26.20;59.00
43561;DHT22;32305;46.410;17.394;2023-06-24T03:55:02;26.20;59.00
43561;DHT22;32305;46.410;17.394;2023-06-24T03:57:31;26.20;59.00
43561;DHT22;32305;46.410;17.394;2023-06-24T03:59:58;26.20;59.00
43561;DHT22;32305;46.410;17.394;2023-06-24T04:02:25;26.20;58.90
43561;DHT22;32305;46.410;17.394;2023-06-24T04:04:53;26.30;59.00
43561;DHT22;32305;46.410;17.394;2023-06-24T04:07:22;26.30;59.00
43561;DHT22;32305;46.410;17.394;2023-06-24T04:09:55;26.30;58.90
43561;DHT22;32305;46.410;17.394;2023-06-24T04:12:22;26.30;59.00
43561;DHT22;32305;46.410;17.394;2023-06-24T04:14:50;26.30;58.90
43561;DHT22;32305;46.410;17.394;2023-06-24T04:17:17;26.30;58.90
43561;DHT22;32305;46.410;17.394;2023-06-24T04:19:44;26.40;59.00
43561;DHT22;32305;46.410;17.394;2023-06-24T04:22:11;26.40;58.80
43561;DHT22;32305;46.410;17.394;2023-06-24T04:24:38;26.40;58.80
43561;DHT22;32305;46.410;17.394;2023-06-24T04:27:06;26.40;58.80
43561;DHT22;32305;46.410;17.394;2023-06-24T04:29:33;26.40;58.80
43561;DHT22;32305;46.410;17.394;2023-06-24T04:32:01;26.50;58.80
43561;DHT22;32305;46.410;17.394;2023-06-24T04:34:28;26.50;58.80
43561;DHT22;32305;46.410;17.394;2023-06-24T04:36:55;26.50;58.60
43561;DHT22;32305;46.410;17.394;2023-06-24T04:39:22;26.50;58.30
43561;DHT22;32305;46.410;17.394;2023-06-24T04:41:49;26.50;58.00
43561;DHT22;32305;46.410;17.394;2023-06-24T04:44:16;26.50;57.70
43561;DHT22;32305;46.410;17.394;2023-06-24T04:46:42;26.60;57.30
43561;DHT22;32305;46.410;17.394;2023-06-24T04:49:10;26.60;57.00
43561;DHT22;32305;46.410;17.394;2023-06-24T04:51:37;26.70;56.80
43561;DHT22;32305;46.410;17.394;2023-06-24T04:54:04;26.70;56.50
43561;DHT22;32305;46.410;17.394;2023-06-24T04:56:31;26.80;56.20
43561;DHT22;32305;46.410;17.394;2023-06-24T04:58:58;26.80;55.80
43561;DHT22;32305;46.410;17.394;2023-06-24T05:01:25;26.80;55.60
43561;DHT22;32305;46.410;17.394;2023-06-24T05:03:52;26.80;55.20
43561;DHT22;32305;46.410;17.394;2023-06-24T05:06:19;26.90;55.00
43561;DHT22;32305;46.410;17.394;2023-06-24T05:08:46;26.90;54.70
43561;DHT22;32305;46.410;17.394;2023-06-24T05:11:13;26.90;54.50
43561;DHT22;32305;46.410;17.394;2023-06-24T05:13:40;26.90;54.20
43561;DHT22;32305;46.410;17.394;2023-06-24T05:16:07;26.90;54.10
43561;DHT22;32305;46.410;17.394;2023-06-24T05:18:34;26.90;53.80
43561;DHT22;32305;46.410;17.394;2023-06-24T05:21:01;26.90;53.50
43561;DHT22;32305;46.410;17.394;2023-06-24T05:23:28;26.90;53.40
43561;DHT22;32305;46.410;17.394;2023-06-24T05:25:55;26.90;53.20
43561;DHT22;32305;46.410;17.394;2023-06-24T05:28:22;26.90;53.00
43561;DHT22;32305;46.410;17.394;2023-06-24T05:30:49;27.00;52.80
43561;DHT22;32305;46.410;17.394;2023-06-24T05:33:15;27.00;52.70
43561;DHT22;32305;46.410;17.394;2023-06-24T05:35:43;27.00;52.60
43561;DHT22;32305;46.410;17.394;2023-06-24T05:38:10;27.00;52.40
43561;DHT22;32305;46.410;17.394;2023-06-24T05:40:37;27.00;52.30
43561;DHT22;32305;46.410;17.394;2023-06-24T05:43:03;27.00;52.20
43561;DHT22;32305;46.410;17.394;2023-06-24T05:45:30;27.00;52.10
43561;DHT22;32305;46.410;17.394;2023-06-24T05:47:58;27.00;51.80
43561;DHT22;32305;46.410;17.394;2023-06-24T05:50:25;27.00;51.80
43561;DHT22;32305;46.410;17.394;2023-06-24T05:52:52;27.00;51.80
43561;DHT22;32305;46.410;17.394;2023-06-24T05:55:18;27.00;51.70
43561;DHT22;32305;46.410;17.394;2023-06-24T05:57:45;27.00;51.60
43561;DHT22;32305;46.410;17.394;2023-06-24T06:00:13;27.10;51.50
43561;DHT22;32305;46.410;17.394;2023-06-24T06:02:40;27.10;51.50
43561;DHT22;32305;46.410;17.394;2023-06-24T06:05:07;27.00;51.30
43561;DHT22;32305;46.410;17.394;2023-06-24T06:07:34;27.10;51.30
43561;DHT22;32305;46.410;17.394;2023-06-24T06:10:01;27.10;51.10
43561;DHT22;32305;46.410;17.394;2023-06-24T06:12:28;27.10;51.10
43561;DHT22;32305;46.410;17.394;2023-06-24T06:14:55;27.10;51.00
43561;DHT22;32305;46.410;17.394;2023-06-24T06:17:23;27.10;51.00
43561;DHT22;32305;46.410;17.394;2023-06-24T06:19:50;27.10;50.90
43561;DHT22;32305;46.410;17.394;2023-06-24T06:22:18;27.10;50.70
43561;DHT22;32305;46.410;17.394;2023-06-24T06:24:45;27.10;50.60
43561;DHT22;32305;46.410;17.394;2023-06-24T06:27:12;27.10;50.50
43561;DHT22;32305;46.410;17.394;2023-06-24T06:29:40;27.10;50.30
43561;DHT22;32305;46.410;17.394;2023-06-24T06:32:07;27.10;50.20
43561;DHT22;32305;46.410;17.394;2023-06-24T06:34:34;27.10;50.20
43561;DHT22;32305;46.410;17.394;2023-06-24T06:37:01;27.20;50.20
43561;DHT22;32305;46.410;17.394;2023-06-24T06:39:28;27.20;49.90
43561;DHT22;32305;46.410;17.394;2023-06-24T06:41:55;27.20;49.70
43561;DHT22;32305;46.410;17.394;2023-06-24T06:44:22;27.20;49.60
43561;DHT22;32305;46.410;17.394;2023-06-24T06:46:49;27.30;49.50
43561;DHT22;32305;46.410;17.394;2023-06-24T06:49:16;27.30;49.30
43561;DHT22;32305;46.410;17.394;2023-06-24T06:51:43;27.30;49.10
43561;DHT22;32305;46.410;17.394;2023-06-24T06:54:09;27.30;49.10
43561;DHT22;32305;46.410;17.394;2023-06-24T06:56:36;27.30;49.00
43561;DHT22;32305;46.410;17.394;2023-06-24T06:59:03;27.40;49.00
43561;DHT22;32305;46.410;17.394;2023-06-24T07:01:30;27.40;49.00
43561;DHT22;32305;46.410;17.394;2023-06-24T07:03:57;27.40;48.80
43561;DHT22;32305;46.410;17.394;2023-06-24T07:06:24;27.40;48.80
43561;DHT22;32305;46.410;17.394;2023-06-24T07:08:51;27.40;48.60
43561;DHT22;32305;46.410;17.394;2023-06-24T07:11:19;27.50;48.70
43561;DHT22;32305;46.410;17.394;2023-06-24T07:13:45;27.40;48.50
43561;DHT22;32305;46.410;17.394;2023-06-24T07:16:12;27.40;48.40
43561;DHT22;32305;46.410;17.394;2023-06-24T07:18:39;27.50;48.50
43561;DHT22;32305;46.410;17.394;2023-06-24T07:21:06;27.50;48.40
43561;DHT22;32305;46.410;17.394;2023-06-24T07:23:33;27.50;48.30
43561;DHT22;32305;46.410;17.394;2023-06-24T07:26:00;27.60;48.30
43561;DHT22;32305;46.410;17.394;2023-06-24T07:28:29;27.60;48.10
43561;DHT22;32305;46.410;17.394;2023-06-24T07:30:56;27.60;47.90
43561;DHT22;32305;46.410;17.394;2023-06-24T07:33:23;27.60;47.80
43561;DHT22;32305;46.410;17.394;2023-06-24T07:35:50;27.70;47.80
43561;DHT22;32305;46.410;17.394;2023-06-24T07:38:17;27.70;47.80
43561;DHT22;32305;46.410;17.394;2023-06-24T07:40:44;27.70;47.70
43561;DHT22;32305;46.410;17.394;2023-06-24T07:43:11;27.70;47.70
43561;DHT22;32305;46.410;17.394;2023-06-24T07:45:38;27.70;47.60
43561;DHT22;32305;46.410;17.394;2023-06-24T07:48:05;27.70;47.60
43561;DHT22;32305;46.410;17.394;2023-06-24T07:50:37;27.70;47.60
43561;DHT22;32305;46.410;17.394;2023-06-24T07:53:04;27.70;47.60
43561;DHT22;32305;46.410;17.394;2023-06-24T07:55:31;27.70;47.50
43561;DHT22;32305;46.410;17.394;2023-06-24T07:57:59;27.70;47.40
43561;DHT22;32305;46.410;17.394;2023-06-24T08:00:26;27.70;47.40
43561;DHT22;32305;46.410;17.394;2023-06-24T08:02:53;27.70;47.40
43561;DHT22;32305;46.410;17.394;2023-06-24T08:05:22;27.70;47.30
43561;DHT22;32305;46.410;17.394;2023-06-24T08:07:50;27.70;47.20
43561;DHT22;32305;46.410;17.394;2023-06-24T08:10:17;27.70;47.10
43561;DHT22;32305;46.410;17.394;2023-06-24T08:12:44;27.70;46.90
43561;DHT22;32305;46.410;17.394;2023-06-24T08:15:11;27.70;46.90
43561;DHT22;32305;46.410;17.394;2023-06-24T08:17:41;27.80;46.80
43561;DHT22;32305;46.410;17.394;2023-06-24T08:20:08;27.80;46.70
43561;DHT22;32305;46.410;17.394;2023-06-24T08:22:35;27.80;46.60
43561;DHT22;32305;46.410;17.394;2023-06-24T08:25:02;27.70;46.30
43561;DHT22;32305;46.410;17.394;2023-06-24T08:27:29;27.80;46.40
43561;DHT22;32305;46.410;17.394;2023-06-24T08:29:56;27.70;46.20
43561;DHT22;32305;46.410;17.394;2023-06-24T08:32:23;27.80;46.20
43561;DHT22;32305;46.410;17.394;2023-06-24T08:34:50;27.80;46.20
43561;DHT22;32305;46.410;17.394;2023-06-24T08:37:17;27.80;46.30
43561;DHT22;32305;46.410;17.394;2023-06-24T08:39:44;27.80;46.30
43561;DHT22;32305;46.410;17.394;2023-06-24T08:42:11;27.80;46.30
43561;DHT22;32305;46.410;17.394;2023-06-24T08:44:38;27.80;46.20
43561;DHT22;32305;46.410;17.394;2023-06-24T08:47:05;27.80;46.20
43561;DHT22;32305;46.410;17.394;2023-06-24T08:49:32;27.90;46.20
43561;DHT22;32305;46.410;17.394;2023-06-24T08:52:02;27.90;46.20
43561;DHT22;32305;46.410;17.394;2023-06-24T08:54:30;27.90;46.10
43561;DHT22;32305;46.410;17.394;2023-06-24T08:56:58;27.90;46.30
43561;DHT22;32305;46.410;17.394;2023-06-24T08:59:28;27.90;46.10
43561;DHT22;32305;46.410;17.394;2023-06-24T09:01:55;27.90;46.20
43561;DHT22;32305;46.410;17.394;2023-06-24T09:04:22;27.90;46.10
43561;DHT22;32305;46.410;17.394;2023-06-24T09:06:49;27.90;46.00
43561;DHT22;32305;46.410;17.394;2023-06-24T09:09:19;28.00;46.10
43561;DHT22;32305;46.410;17.394;2023-06-24T09:11:57;28.00;46.00
43561;DHT22;32305;46.410;17.394;2023-06-24T09:14:25;28.00;46.00
43561;DHT22;32305;46.410;17.394;2023-06-24T09:16:55;27.90;46.00
43561;DHT22;32305;46.410;17.394;2023-06-24T09:19:23;27.90;46.00
43561;DHT22;32305;46.410;17.394;2023-06-24T09:21:50;27.90;46.00
43561;DHT22;32305;46.410;17.394;2023-06-24T09:24:19;28.00;46.10
43561;DHT22;32305;46.410;17.394;2023-06-24T09:26:46;28.00;46.00
43561;DHT22;32305;46.410;17.394;2023-06-24T09:29:13;28.00;46.00
43561;DHT22;32305;46.410;17.394;2023-06-24T09:31:47;28.00;46.00
43561;DHT22;32305;46.410;17.394;2023-06-24T09:34:15;28.00;46.00
43561;DHT22;32305;46.410;17.394;2023-06-24T09:36:42;28.00;46.10
43561;DHT22;32305;46.410;17.394;2023-06-24T09:39:10;27.90;46.00
43561;DHT22;32305;46.410;17.394;2023-06-24T09:41:56;28.00;46.00
43561;DHT22;32305;46.410;17.394;2023-06-24T09:44:23;28.00;45.90
43561;DHT22;32305;46.410;17.394;2023-06-24T09:46:50;28.00;45.80
43561;DHT22;32305;46.410;17.394;2023-06-24T09:49:17;28.00;45.80
43561;DHT22;32305;46.410;17.394;2023-06-24T09:51:46;28.10;45.90
43561;DHT22;32305;46.410;17.394;2023-06-24T09:54:13;28.10;45.80
43561;DHT22;32305;46.410;17.394;2023-06-24T09:56:47;28.10;45.70
43561;DHT22;32305;46.410;17.394;2023-06-24T09:59:14;28.00;45.70
43561;DHT22;32305;46.410;17.394;2023-06-24T10:01:43;28.00;45.70
43561;DHT22;32305;46.410;17.394;2023-06-24T10:04:13;28.00;45.80
43561;DHT22;32305;46.410;17.394;2023-06-24T10:06:41;28.00;45.90
43561;DHT22;32305;46.410;17.394;2023-06-24T10:09:08;28.00;45.90
43561;DHT22;32305;46.410;17.394;2023-06-24T10:11:35;28.00;45.80
43561;DHT22;32305;46.410;17.394;2023-06-24T10:14:02;28.00;45.90
43561;DHT22;32305;46.410;17.394;2023-06-24T10:16:29;28.00;45.80
43561;DHT22;32305;46.410;17.394;2023-06-24T10:19:00;28.10;45.70
43561;DHT22;32305;46.410;17.394;2023-06-24T10:22:00;28.10;45.60
43561;DHT22;32305;46.410;17.394;2023-06-24T10:24:29;28.00;45.60
43561;DHT22;32305;46.410;17.394;2023-06-24T10:27:07;28.00;45.60
43561;DHT22;32305;46.410;17.394;2023-06-24T10:29:36;28.00;45.70
43561;DHT22;32305;46.410;17.394;2023-06-24T10:32:04;28.00;45.80
43561;DHT22;32305;46.410;17.394;2023-06-24T10:34:32;28.00;45.80
43561;DHT22;32305;46.410;17.394;2023-06-24T10:37:19;28.00;45.90
43561;DHT22;32305;46.410;17.394;2023-06-24T10:39:49;28.00;45.90
43561;DHT22;32305;46.410;17.394;2023-06-24T10:42:30;27.90;45.80
43561;DHT22;32305;46.410;17.394;2023-06-24T10:44:58;28.00;45.70
43561;DHT22;32305;46.410;17.394;2023-06-24T10:47:26;28.00;45.60
43561;DHT22;32305;46.410;17.394;2023-06-24T10:49:53;28.10;45.50
43561;DHT22;32305;46.410;17.394;2023-06-24T10:52:21;28.20;45.50
43561;DHT22;32305;46.410;17.394;2023-06-24T10:54:48;28.20;45.40
43561;DHT22;32305;46.410;17.394;2023-06-24T10:57:16;28.30;45.40
43561;DHT22;32305;46.410;17.394;2023-06-24T10:59:48;28.30;45.20
43561;DHT22;32305;46.410;17.394;2023-06-24T11:02:20;28.40;45.20
43561;DHT22;32305;46.410;17.394;2023-06-24T11:04:49;28.30;45.10
43561;DHT22;32305;46.410;17.394;2023-06-24T11:07:17;28.40;45.20
43561;DHT22;32305;46.410;17.394;2023-06-24T11:09:51;28.40;45.30
43561;DHT22;32305;46.410;17.394;2023-06-24T11:12:19;28.30;45.10
43561;DHT22;32305;46.410;17.394;2023-06-24T11:14:50;28.30;45.30
43561;DHT22;32305;46.410;17.394;2023-06-24T11:17:19;28.30;45.30
43561;DHT22;32305;46.410;17.394;2023-06-24T11:19:46;28.30;45.30
43561;DHT22;32305;46.410;17.394;2023-06-24T11:22:13;28.30;45.30
43561;DHT22;32305;46.410;17.394;2023-06-24T11:24:40;28.20;45.30
43561;DHT22;32305;46.410;17.394;2023-06-24T11:27:08;28.30;45.40
43561;DHT22;32305;46.410;17.394;2023-06-24T11:29:35;28.30;45.40
43561;DHT22;32305;46.410;17.394;2023-06-24T11:32:02;28.20;45.30
43561;DHT22;32305;46.410;17.394;2023-06-24T11:34:29;28.30;45.30
43561;DHT22;32305;46.410;17.394;2023-06-24T11:36:56;28.30;45.30
43561;DHT22;32305;46.410;17.394;2023-06-24T11:39:24;28.20;45.30
43561;DHT22;32305;46.410;17.394;2023-06-24T11:41:51;28.30;45.30
43561;DHT22;32305;46.410;17.394;2023-06-24T11:44:19;28.30;45.30
43561;DHT22;32305;46.410;17.394;2023-06-24T11:46:46;28.20;45.30
43561;DHT22;32305;46.410;17.394;2023-06-24T11:49:13;28.20;45.30
43561;DHT22;32305;46.410;17.394;2023-06-24T11:51:48;28.30;45.40
43561;DHT22;32305;46.410;17.394;2023-06-24T11:54:16;28.20;45.40
43561;DHT22;32305;46.410;17.394;2023-06-24T11:56:44;28.20;45.50
43561;DHT22;32305;46.410;17.394;2023-06-24T11:59:16;28.10;45.60
43561;DHT22;32305;46.410;17.394;2023-06-24T12:01:53;28.10;45.70
43561;DHT22;32305;46.410;17.394;2023-06-24T12:04:21;28.10;45.70
43561;DHT22;32305;46.410;17.394;2023-06-24T12:06:48;28.10;45.90
43561;DHT22;32305;46.410;17.394;2023-06-24T12:09:15;28.00;45.80
43561;DHT22;32305;46.410;17.394;2023-06-24T12:11:42;28.00;45.90
43561;DHT22;32305;46.410;17.394;2023-06-24T12:14:09;28.00;45.90
43561;DHT22;32305;46.410;17.394;2023-06-24T12:16:38;28.00;46.00
43561;DHT22;32305;46.410;17.394;2023-06-24T12:19:08;28.00;46.10
43561;DHT22;32305;46.410;17.394;2023-06-24T12:21:35;28.00;46.10
43561;DHT22;32305;46.410;17.394;2023-06-24T12:24:02;28.00;46.10
43561;DHT22;32305;46.410;17.394;2023-06-24T12:26:30;28.00;46.00
43561;DHT22;32305;46.410;17.394;2023-06-24T12:28:57;28.00;45.90
43561;DHT22;32305;46.410;17.394;2023-06-24T12:31:24;28.10;45.90
43561;DHT22;32305;46.410;17.394;2023-06-24T12:33:51;28.10;45.80
43561;DHT22;32305;46.410;17.394;2023-06-24T12:36:19;28.10;45.70
43561;DHT22;32305;46.410;17.394;2023-06-24T12:38:46;28.10;45.60
43561;DHT22;32305;46.410;17.394;2023-06-24T12:41:13;28.10;45.70
43561;DHT22;32305;46.410;17.394;2023-06-24T12:43:40;28.10;45.70
43561;DHT22;32305;46.410;17.394;2023-06-24T12:46:06;28.10;45.60
43561;DHT22;32305;46.410;17.394;2023-06-24T12:48:33;28.10;45.60
43561;DHT22;32305;46.410;17.394;2023-06-24T12:51:02;28.10;45.70
43561;DHT22;32305;46.410;17.394;2023-06-24T12:53:29;28.10;45.70
43561;DHT22;32305;46.410;17.394;2023-06-24T12:55:56;28.00;45.70
43561;DHT22;32305;46.410;17.394;2023-06-24T12:58:23;28.00;45.70
43561;DHT22;32305;46.410;17.394;2023-06-24T13:00:52;28.00;45.70
43561;DHT22;32305;46.410;17.394;2023-06-24T13:03:19;28.00;45.80
43561;DHT22;32305;46.410;17.394;2023-06-24T13:05:46;27.90;45.90
43561;DHT22;32305;46.410;17.394;2023-06-24T13:08:13;27.90;45.90
43561;DHT22;32305;46.410;17.394;2023-06-24T13:10:40;28.00;46.00
43561;DHT22;32305;46.410;17.394;2023-06-24T13:13:07;28.00;46.00
43561;DHT22;32305;46.410;17.394;2023-06-24T13:15:34;27.90;45.90
43561;DHT22;32305;46.410;17.394;2023-06-24T13:18:00;27.90;45.90
43561;DHT22;32305;46.410;17.394;2023-06-24T13:20:28;28.00;46.00
43561;DHT22;32305;46.410;17.394;2023-06-24T13:22:55;27.90;46.00
43561;DHT22;32305;46.410;17.394;2023-06-24T13:25:22;27.90;46.00
43561;DHT22;32305;46.410;17.394;2023-06-24T13:27:49;27.90;46.00
43561;DHT22;32305;46.410;17.394;2023-06-24T13:30:16;27.90;46.10
43561;DHT22;32305;46.410;17.394;2023-06-24T13:32:43;27.90;46.10
43561;DHT22;32305;46.410;17.394;2023-06-24T13:35:10;27.90;46.10
43561;DHT22;32305;46.410;17.394;2023-06-24T13:37:37;27.80;46.00
43561;DHT22;32305;46.410;17.394;2023-06-24T13:40:08;27.80;45.90
43561;DHT22;32305;46.410;17.394;2023-06-24T13:42:35;27.90;46.00
43561;DHT22;32305;46.410;17.394;2023-06-24T13:45:02;27.90;45.90
43561;DHT22;32305;46.410;17.394;2023-06-24T13:47:29;27.90;45.80
43561;DHT22;32305;46.410;17.394;2023-06-24T13:49:56;28.00;45.80
43561;DHT22;32305;46.410;17.394;2023-06-24T13:52:25;28.00;45.70
43561;DHT22;32305;46.410;17.394;2023-06-24T13:54:53;28.00;45.70
43561;DHT22;32305;46.410;17.394;2023-06-24T13:57:20;28.00;45.70
43561;DHT22;32305;46.410;17.394;2023-06-24T13:59:47;28.00;45.70
43561;DHT22;32305;46.410;17.394;2023-06-24T14:02:13;27.90;45.90
43561;DHT22;32305;46.410;17.394;2023-06-24T14:04:40;27.90;45.90
43561;DHT22;32305;46.410;17.394;2023-06-24T14:07:07;27.90;45.80
43561;DHT22;32305;46.410;17.394;2023-06-24T14:09:38;27.90;45.80
43561;DHT22;32305;46.410;17.394;2023-06-24T14:12:05;27.90;46.00
43561;DHT22;32305;46.410;17.394;2023-06-24T14:14:34;27.90;46.40
43561;DHT22;32305;46.410;17.394;2023-06-24T14:17:01;27.90;46.80
43561;DHT22;32305;46.410;17.394;2023-06-24T14:19:28;27.90;47.10
43561;DHT22;32305;46.410;17.394;2023-06-24T14:21:56;27.90;47.30
43561;DHT22;32305;46.410;17.394;2023-06-24T14:24:27;27.90;47.60
43561;DHT22;32305;46.410;17.394;2023-06-24T14:26:54;27.90;47.80
43561;DHT22;32305;46.410;17.394;2023-06-24T14:29:21;27.90;47.80
43561;DHT22;32305;46.410;17.394;2023-06-24T14:31:48;27.90;48.00
43561;DHT22;32305;46.410;17.394;2023-06-24T14:34:15;27.90;48.00
43561;DHT22;32305;46.410;17.394;2023-06-24T14:36:42;27.90;48.10
43561;DHT22;32305;46.410;17.394;2023-06-24T14:39:09;27.90;48.30
43561;DHT22;32305;46.410;17.394;2023-06-24T14:41:36;27.90;48.40
43561;DHT22;32305;46.410;17.394;2023-06-24T14:44:03;27.90;48.50
43561;DHT22;32305;46.410;17.394;2023-06-24T14:46:30;28.00;48.90
43561;DHT22;32305;46.410;17.394;2023-06-24T14:48:57;27.90;48.70
43561;DHT22;32305;46.410;17.394;2023-06-24T14:51:24;27.90;48.80
43561;DHT22;32305;46.410;17.394;2023-06-24T14:53:53;28.00;48.90
43561;DHT22;32305;46.410;17.394;2023-06-24T14:56:20;28.00;48.90
43561;DHT22;32305;46.410;17.394;2023-06-24T14:58:47;28.00;49.00
43561;DHT22;32305;46.410;17.394;2023-06-24T15:01:14;28.00;49.10
43561;DHT22;32305;46.410;17.394;2023-06-24T15:03:41;28.10;49.20
43561;DHT22;32305;46.410;17.394;2023-06-24T15:06:08;28.00;49.30
43561;DHT22;32305;46.410;17.394;2023-06-24T15:08:35;28.10;49.50
43561;DHT22;32305;46.410;17.394;2023-06-24T15:11:02;28.00;49.60
43561;DHT22;32305;46.410;17.394;2023-06-24T15:13:29;28.00;49.70
43561;DHT22;32305;46.410;17.394;2023-06-24T15:15:56;28.00;49.80
43561;DHT22;32305;46.410;17.394;2023-06-24T15:18:24;28.00;49.70
43561;DHT22;32305;46.410;17.394;2023-06-24T15:20:51;28.00;49.70
43561;DHT22;32305;46.410;17.394;2023-06-24T15:23:20;28.00;49.80